Archival Weather

Abadan

Abadan, Iran (OIAA)

Report from: Wednesday, December 6, 2023 6:00 AM UTC
Current time: Sunday, February 25, 2024 10:27 PM UTC

Current weather – Weather history – Daily summaries
Weather forecast

Present weatherHaze
Temperature17.0°C (62.6°F)
Dew point8.0°C (46.4°F)
Winds 2 kts (1 m/s, 2.3 mph) West (270°)
Visibility3.1 mi. (5 km)
Altimeter30.06 in.Hg (1018 mB)
Relative humidity55 %
Density altitude230 ft. (70 m)
Flight conditions Marginal Visual Meteorological Conditions
Raw dataOIAA 060600Z 27002KT 5000 HZ NSC 17/08 Q1018
An error has occurred. This application may no longer respond until reloaded. Reload 🗙